Time;durP1;ratioP1;P1;durP2;ratioP2;P2;SDS_P1;SDS_P2;PMS_P1;PMS_P2;Temp;Humidity;BMP_temperature;BMP_pressure;BME280_temperature;BME280_humidity;BME280_pressure;Samples;Min_cycle;Max_cycle;Signal;HPM_P1;HPM_P2
2022/09/24 00:00:11;;;;;;;25.80;14.05;;;3.70;99.90;;;;;;4364042;28;657983;-69
2022/09/24 00:03:00;;;;;;;28.00;14.83;;;3.70;99.90;;;;;;4388886;28;657925;-70
2022/09/24 00:05:47;;;;;;;30.00;16.50;;;3.70;99.90;;;;;;4367766;28;659830;-71
2022/09/24 00:08:34;;;;;;;34.33;16.00;;;3.70;99.90;;;;;;4382634;28;657793;-70
2022/09/24 00:11:21;;;;;;;27.87;14.37;;;3.70;99.90;;;;;;4370584;28;657967;-70
2022/09/24 00:14:08;;;;;;;28.07;15.33;;;3.70;99.90;;;;;;4388542;28;657385;-72
2022/09/24 00:16:55;;;;;;;40.10;19.23;;;3.70;99.90;;;;;;4360905;28;657983;-72
2022/09/24 00:19:44;;;;;;;35.17;16.33;;;3.70;99.90;;;;;;4386385;28;659356;-72
2022/09/24 00:22:32;;;;;;;33.57;16.73;;;3.70;99.90;;;;;;4366623;28;658065;-72
2022/09/24 00:28:24;;;;;;;36.17;17.07;;;3.70;99.90;;;;;;4362689;28;657839;-72
2022/09/24 00:31:11;;;;;;;28.70;15.77;;;3.70;99.90;;;;;;4365840;28;658056;-72
2022/09/24 00:34:00;;;;;;;28.77;15.47;;;3.80;99.90;;;;;;4381486;28;657776;-70
2022/09/24 00:36:48;;;;;;;25.83;14.60;;;3.70;99.90;;;;;;4355355;28;658826;-70
2022/09/24 00:39:36;;;;;;;26.13;13.60;;;3.70;99.90;;;;;;4360295;28;657883;-70
2022/09/24 00:42:23;;;;;;;24.60;13.40;;;3.70;99.90;;;;;;4376375;28;658942;-70
2022/09/24 00:45:11;;;;;;;21.40;13.40;;;3.70;99.90;;;;;;4358879;28;658966;-70
2022/09/24 00:47:58;;;;;;;21.57;13.07;;;3.70;99.90;;;;;;4387102;28;658857;-70
2022/09/24 00:50:45;;;;;;;29.20;14.07;;;3.80;99.90;;;;;;4368571;28;657689;-70
2022/09/24 00:53:33;;;;;;;22.73;13.05;;;3.80;99.90;;;;;;4391973;28;657745;-70
2022/09/24 00:56:21;;;;;;;21.90;12.67;;;3.80;99.90;;;;;;4367575;28;657704;-70
2022/09/24 00:59:09;;;;;;;22.47;13.30;;;3.90;99.90;;;;;;4394077;28;658339;-70
2022/09/24 01:01:57;;;;;;;27.33;13.53;;;3.90;99.90;;;;;;4368828;28;657492;-70
2022/09/24 01:04:47;;;;;;;22.50;12.37;;;3.80;99.90;;;;;;4386386;28;657612;-70
2022/09/24 01:07:34;;;;;;;32.23;13.40;;;3.80;99.90;;;;;;4394459;28;657602;-71
2022/09/24 01:13:43;;;;;;;27.60;14.07;;;3.80;99.90;;;;;;4344549;28;658517;-70
2022/09/24 01:16:35;;;;;;;28.10;14.33;;;3.80;99.90;;;;;;4353376;28;658328;-69
2022/09/24 01:19:47;;;;;;;24.53;12.80;;;3.80;99.90;;;;;;4368851;28;659123;-70
2022/09/24 01:22:42;;;;;;;26.87;13.70;;;3.90;99.90;;;;;;4370296;28;658038;-70
2022/09/24 01:25:35;;;;;;;30.53;14.17;;;3.90;99.90;;;;;;4361244;28;657414;-70
2022/09/24 01:28:30;;;;;;;27.97;13.93;;;3.80;99.90;;;;;;4353045;28;658272;-70
2022/09/24 01:31:22;;;;;;;26.07;13.93;;;3.70;99.90;;;;;;4351715;28;658624;-70
2022/09/24 01:34:11;;;;;;;25.00;13.57;;;3.70;99.90;;;;;;4364706;28;658099;-70
2022/09/24 01:36:58;;;;;;;25.70;13.07;;;3.70;99.90;;;;;;4365217;28;658146;-70
2022/09/24 01:39:45;;;;;;;25.37;13.77;;;3.70;99.90;;;;;;4372143;28;657894;-69
2022/09/24 01:42:32;;;;;;;35.03;15.77;;;3.60;99.90;;;;;;4389063;28;658679;-70
2022/09/24 01:45:19;;;;;;;74.03;28.57;;;3.60;99.90;;;;;;4399304;28;657257;-70
2022/09/24 01:48:08;;;;;;;64.83;25.23;;;3.60;99.90;;;;;;4375784;28;658663;-71
2022/09/24 01:50:57;;;;;;;34.33;16.27;;;3.60;99.90;;;;;;4360828;28;657583;-70
2022/09/24 01:53:47;;;;;;;25.63;13.87;;;3.60;99.90;;;;;;4392554;28;657569;-69
2022/09/24 01:56:37;;;;;;;24.13;13.33;;;3.50;99.90;;;;;;4389845;28;657442;-70
2022/09/24 01:59:27;;;;;;;23.07;12.27;;;3.40;99.90;;;;;;4354885;28;658103;-70
2022/09/24 02:02:16;;;;;;;25.10;13.03;;;3.50;99.90;;;;;;4357603;28;657843;-70
2022/09/24 02:05:06;;;;;;;26.37;14.17;;;3.40;99.90;;;;;;4370697;28;658726;-70
2022/09/24 02:07:57;;;;;;;24.43;13.10;;;3.40;99.90;;;;;;4367523;28;658047;-70
2022/09/24 02:10:46;;;;;;;22.20;11.73;;;3.40;99.90;;;;;;4394020;28;657722;-70
2022/09/24 02:13:39;;;;;;;25.30;13.17;;;3.30;99.90;;;;;;4362541;28;659127;-70
2022/09/24 02:16:27;;;;;;;23.57;12.30;;;3.30;99.90;;;;;;4349225;28;658197;-70
2022/09/24 02:19:16;;;;;;;32.43;14.60;;;3.30;99.90;;;;;;4391194;28;657656;-71
2022/09/24 02:22:04;;;;;;;37.80;17.67;;;3.20;99.90;;;;;;4369614;28;657993;-70
2022/09/24 02:24:53;;;;;;;25.70;14.60;;;3.20;99.90;;;;;;4376241;28;657930;-70
2022/09/24 02:27:40;;;;;;;32.83;15.47;;;3.20;99.90;;;;;;4370682;28;657416;-70
2022/09/24 02:30:27;;;;;;;26.03;14.03;;;3.30;99.90;;;;;;4391017;28;658154;-70
2022/09/24 02:36:23;;;;;;;24.83;13.67;;;3.20;99.90;;;;;;4389754;28;657442;-70
2022/09/24 02:39:12;;;;;;;27.60;14.50;;;3.20;99.90;;;;;;4363171;28;658240;-70
2022/09/24 02:41:59;;;;;;;25.43;13.90;;;3.20;99.90;;;;;;4386395;28;657925;-70
2022/09/24 02:44:47;;;;;;;24.37;13.00;;;3.20;99.90;;;;;;4369909;28;657375;-70
2022/09/24 02:47:34;;;;;;;24.17;13.37;;;3.20;99.90;;;;;;4387508;28;658186;-71
2022/09/24 02:50:21;;;;;;;24.60;13.60;;;3.10;99.90;;;;;;4367495;28;657868;-70
2022/09/24 02:53:08;;;;;;;23.20;13.33;;;3.10;99.90;;;;;;4395275;28;658874;-70
2022/09/24 02:55:57;;;;;;;24.35;12.70;;;3.20;99.90;;;;;;4367872;28;658029;-70
2022/09/24 02:58:44;;;;;;;22.43;12.43;;;3.10;99.90;;;;;;4391358;28;657282;-70
2022/09/24 03:01:32;;;;;;;26.47;12.67;;;3.10;99.90;;;;;;4363159;28;657746;-70
2022/09/24 03:04:19;;;;;;;23.97;12.13;;;3.10;99.90;;;;;;4393252;28;657457;-71
2022/09/24 03:07:06;;;;;;;20.67;12.33;;;3.20;99.90;;;;;;4365327;28;657938;-70
2022/09/24 03:09:53;;;;;;;25.67;13.23;;;3.20;99.90;;;;;;4389734;28;658615;-70
2022/09/24 03:12:43;;;;;;;24.20;12.13;;;3.20;99.90;;;;;;4368464;28;657396;-70
2022/09/24 03:15:30;;;;;;;21.23;11.90;;;3.20;99.90;;;;;;4381342;28;657650;-70
2022/09/24 03:18:17;;;;;;;30.95;11.90;;;3.20;99.90;;;;;;4380940;28;657749;-70
2022/09/24 03:21:05;;;;;;;23.97;12.67;;;3.20;99.90;;;;;;4381460;28;657806;-71
2022/09/24 03:23:52;;;;;;;27.20;12.80;;;3.20;99.90;;;;;;4355339;28;659364;-70
2022/09/24 03:26:40;;;;;;;23.10;11.77;;;3.20;99.90;;;;;;4375678;28;657532;-71
2022/09/24 03:32:34;;;;;;;39.53;16.23;;;3.10;99.90;;;;;;4356581;28;658346;-72
2022/09/24 03:35:21;;;;;;;36.60;14.53;;;3.10;99.90;;;;;;4373350;28;657682;-70
2022/09/24 03:38:08;;;;;;;51.00;17.50;;;3.10;99.90;;;;;;4389506;28;657889;-70
2022/09/24 03:40:56;;;;;;;165.17;38.83;;;3.10;99.90;;;;;;4363939;28;657669;-70
2022/09/24 03:43:43;;;;;;;291.63;57.57;;;3.10;99.90;;;;;;4383094;28;659614;-71
2022/09/24 03:46:31;;;;;;;148.97;34.40;;;3.20;99.90;;;;;;4365781;28;659076;-70
2022/09/24 03:49:19;;;;;;;92.00;23.67;;;3.10;99.90;;;;;;4377352;28;659507;-69
2022/09/24 03:52:06;;;;;;;80.33;22.03;;;3.10;99.90;;;;;;4372894;28;657668;-70
2022/09/24 03:54:53;;;;;;;88.37;27.07;;;3.10;99.90;;;;;;4390250;28;658325;-70
2022/09/24 03:57:40;;;;;;;122.07;34.93;;;3.10;99.90;;;;;;4364403;28;657446;-70
2022/09/24 04:00:27;;;;;;;91.50;30.40;;;3.10;99.90;;;;;;4388279;28;658323;-70
2022/09/24 04:03:16;;;;;;;51.77;19.40;;;3.10;99.90;;;;;;4386782;28;657369;-70
2022/09/24 04:06:03;;;;;;;26.30;13.23;;;3.20;99.90;;;;;;4364361;28;658229;-70
2022/09/24 04:08:50;;;;;;;26.80;13.53;;;3.20;99.90;;;;;;4368706;28;657468;-69
2022/09/24 04:11:37;;;;;;;25.95;12.18;;;3.30;99.90;;;;;;4389293;28;657606;-70
2022/09/24 04:14:24;;;;;;;19.17;11.00;;;3.30;99.90;;;;;;4387682;28;657521;-71
2022/09/24 04:17:13;;;;;;;21.73;11.43;;;3.30;99.90;;;;;;4368622;28;657775;-70
2022/09/24 04:20:02;;;;;;;26.02;12.68;;;3.30;99.90;;;;;;4375124;28;657623;-70
2022/09/24 04:22:49;;;;;;;28.30;16.40;;;3.30;99.90;;;;;;4390374;28;658262;-70
2022/09/24 04:25:36;;;;;;;28.85;14.60;;;3.40;99.90;;;;;;4365182;28;657586;-70
2022/09/24 04:28:24;;;;;;;32.47;17.40;;;3.40;99.90;;;;;;4388959;28;659447;-70
2022/09/24 04:31:11;;;;;;;99.07;24.00;;;3.40;99.90;;;;;;4371489;28;657988;-70
2022/09/24 04:33:58;;;;;;;90.17;22.07;;;3.40;99.90;;;;;;4395535;28;658382;-70
2022/09/24 04:36:46;;;;;;;85.88;21.23;;;3.50;99.90;;;;;;4376941;28;657975;-70
2022/09/24 04:39:34;;;;;;;67.23;19.03;;;3.40;99.90;;;;;;4391743;28;657950;-70
2022/09/24 04:42:21;;;;;;;37.70;13.77;;;3.50;99.90;;;;;;4376316;28;658844;-70
2022/09/24 04:45:09;;;;;;;26.63;12.60;;;3.50;99.90;;;;;;4394473;28;657711;-70
2022/09/24 04:47:56;;;;;;;18.40;10.77;;;3.60;99.90;;;;;;4370660;28;657714;-70
2022/09/24 04:50:44;;;;;;;19.55;10.88;;;3.60;99.90;;;;;;4396022;28;658942;-70
2022/09/24 04:53:32;;;;;;;25.43;11.27;;;3.70;99.90;;;;;;4372969;28;657475;-71
2022/09/24 04:56:19;;;;;;;20.03;11.40;;;3.70;99.90;;;;;;4394650;28;657564;-77
2022/09/24 04:59:06;;;;;;;40.83;15.77;;;3.80;99.90;;;;;;4378375;28;657977;-77
2022/09/24 05:01:54;;;;;;;36.27;14.27;;;3.80;99.90;;;;;;4387419;28;657388;-77
2022/09/24 05:04:42;;;;;;;50.10;17.97;;;3.90;99.90;;;;;;4349668;28;657343;-77
2022/09/24 05:07:29;;;;;;;51.57;18.63;;;4.00;99.90;;;;;;4375448;28;657948;-76
2022/09/24 05:10:18;;;;;;;69.10;20.93;;;4.00;99.90;;;;;;4352522;28;657599;-77
2022/09/24 05:13:05;;;;;;;58.87;17.77;;;4.10;99.90;;;;;;4370761;28;657677;-74
2022/09/24 05:15:52;;;;;;;59.80;19.20;;;4.20;99.90;;;;;;4401780;28;657468;-76
2022/09/24 05:18:40;;;;;;;51.77;19.07;;;4.20;99.90;;;;;;4381992;28;657659;-76
2022/09/24 05:21:27;;;;;;;49.93;19.03;;;4.30;99.90;;;;;;4364320;28;658400;-77
2022/09/24 05:24:14;;;;;;;59.37;18.47;;;4.30;99.90;;;;;;4370317;28;658111;-76
2022/09/24 05:27:11;;;;;;;49.47;17.97;;;4.40;99.90;;;;;;4361943;28;658111;-77
2022/09/24 05:29:59;;;;;;;27.53;13.43;;;4.60;99.90;;;;;;4350435;28;657994;-77
2022/09/24 05:32:48;;;;;;;54.97;16.70;;;4.80;99.90;;;;;;4366250;28;657864;-76
2022/09/24 05:35:35;;;;;;;38.30;15.17;;;5.00;99.90;;;;;;4372313;28;658065;-73
2022/09/24 05:38:23;;;;;;;43.30;15.57;;;5.10;99.90;;;;;;4394836;28;659156;-77
2022/09/24 05:41:10;;;;;;;44.93;16.63;;;5.20;99.90;;;;;;4378261;28;657780;-74
2022/09/24 05:43:59;;;;;;;38.03;15.63;;;5.30;99.90;;;;;;4389085;28;658077;-77
2022/09/24 05:46:46;;;;;;;41.20;17.60;;;5.50;99.90;;;;;;4360232;28;657428;-76
2022/09/24 05:49:33;;;;;;;34.40;15.77;;;5.70;99.90;;;;;;4386142;28;657183;-76
2022/09/24 05:52:20;;;;;;;35.37;15.40;;;6.00;99.90;;;;;;4366687;28;658078;-73
2022/09/24 05:55:09;;;;;;;38.53;16.50;;;6.20;99.90;;;;;;4388052;28;658683;-74
2022/09/24 06:00:27;;;;;;;33.37;15.47;;;6.70;99.90;;;;;;4431786;28;533914;-86
2022/09/24 06:03:15;;;;;;;38.50;16.47;;;6.90;99.90;;;;;;4379385;28;657229;-88
2022/09/24 06:06:02;;;;;;;32.90;15.97;;;7.10;99.90;;;;;;4369830;28;658607;-87
2022/09/24 06:08:49;;;;;;;33.17;15.87;;;7.30;99.90;;;;;;4378148;28;657808;-87
2022/09/24 06:11:37;;;;;;;25.47;14.37;;;7.50;99.90;;;;;;4350103;28;657750;-87
2022/09/24 06:14:24;;;;;;;24.87;13.70;;;7.60;99.90;;;;;;4381817;28;657866;-86
2022/09/24 06:17:13;;;;;;;25.77;13.93;;;7.80;99.90;;;;;;4350580;28;657815;-86
2022/09/24 06:20:00;;;;;;;23.40;13.67;;;8.10;99.90;;;;;;4352149;28;657653;-86
2022/09/24 06:22:48;;;;;;;24.80;13.90;;;8.20;99.90;;;;;;4375190;28;657998;-86
2022/09/24 06:25:35;;;;;;;20.97;13.47;;;8.40;99.90;;;;;;4367945;28;657910;-86
2022/09/24 06:28:23;;;;;;;20.55;13.05;;;8.60;99.90;;;;;;4383929;28;657860;-86
2022/09/24 06:31:11;;;;;;;21.93;12.50;;;8.70;99.90;;;;;;4369765;28;657455;-86
2022/09/24 06:34:01;;;;;;;20.20;12.40;;;8.80;99.90;;;;;;4378632;28;657689;-85
2022/09/24 06:36:48;;;;;;;21.33;12.10;;;8.90;99.90;;;;;;4356424;28;658597;-85
2022/09/24 06:39:35;;;;;;;16.93;10.13;;;9.00;99.90;;;;;;4319049;28;657383;-86
2022/09/24 06:42:22;;;;;;;15.67;10.23;;;9.20;99.90;;;;;;4356376;28;658203;-86
2022/09/24 06:45:10;;;;;;;16.70;9.60;;;9.30;99.90;;;;;;4360200;28;658053;-86
2022/09/24 06:47:59;;;;;;;14.30;9.43;;;9.50;99.90;;;;;;4327994;28;657941;-86
2022/09/24 06:50:48;;;;;;;14.03;9.30;;;9.70;99.90;;;;;;4321652;28;656644;-86
2022/09/24 06:53:35;;;;;;;14.30;9.33;;;9.80;99.90;;;;;;4354749;28;657476;-86
2022/09/24 06:56:22;;;;;;;17.55;9.63;;;10.10;99.90;;;;;;4373856;28;656199;-86
2022/09/24 06:59:09;;;;;;;18.33;10.70;;;10.30;99.90;;;;;;4379894;28;657800;-86
2022/09/24 07:01:57;;;;;;;16.80;9.00;;;10.50;99.90;;;;;;4353774;28;658546;-86
2022/09/24 07:04:44;;;;;;;13.90;9.13;;;10.70;99.90;;;;;;4372995;28;657738;-86
2022/09/24 07:07:33;;;;;;;14.50;9.87;;;10.80;99.90;;;;;;4349128;28;657882;-86
2022/09/24 07:10:23;;;;;;;14.30;9.60;;;11.00;99.90;;;;;;4362854;28;657560;-86
2022/09/24 07:13:11;;;;;;;13.75;8.68;;;11.10;99.90;;;;;;4358302;28;658139;-86
2022/09/24 07:16:00;;;;;;;12.30;8.18;;;11.30;99.90;;;;;;4356151;28;657837;-86
2022/09/24 07:18:47;;;;;;;12.73;7.90;;;11.50;99.90;;;;;;4335219;28;658173;-86
2022/09/24 07:21:34;;;;;;;12.83;8.53;;;11.60;99.90;;;;;;4360342;28;657672;-86
2022/09/24 07:24:22;;;;;;;13.20;8.83;;;11.60;99.90;;;;;;4347408;28;657284;-86
2022/09/24 07:27:10;;;;;;;14.07;10.27;;;11.70;99.90;;;;;;4371315;28;657236;-87
2022/09/24 07:29:58;;;;;;;14.20;9.83;;;11.80;99.90;;;;;;4374070;28;659749;-86
2022/09/24 07:32:45;;;;;;;14.63;9.47;;;11.90;99.90;;;;;;4363666;28;657901;-86
2022/09/24 07:35:32;;;;;;;13.87;8.90;;;12.00;99.90;;;;;;4376188;28;657905;-86
2022/09/24 07:38:20;;;;;;;15.77;9.50;;;12.30;99.90;;;;;;4361349;28;657382;-86
2022/09/24 07:41:09;;;;;;;15.60;9.73;;;12.50;99.90;;;;;;4363752;28;657978;-86
2022/09/24 07:43:56;;;;;;;19.37;11.33;;;12.70;99.90;;;;;;4347901;28;657877;-86
2022/09/24 07:46:43;;;;;;;19.30;10.70;;;12.70;99.90;;;;;;4370321;28;658958;-86
2022/09/24 07:49:31;;;;;;;18.13;11.23;;;13.00;99.90;;;;;;4351549;28;658386;-86
2022/09/24 07:52:18;;;;;;;16.40;9.75;;;13.10;99.90;;;;;;4376207;28;658722;-86
2022/09/24 07:55:07;;;;;;;13.43;8.10;;;13.20;99.90;;;;;;4340664;28;657740;-86
2022/09/24 07:57:56;;;;;;;14.30;8.83;;;13.40;99.90;;;;;;4374280;28;657440;-85
2022/09/24 08:00:43;;;;;;;11.30;6.73;;;13.40;99.90;;;;;;4334860;28;657660;-85
2022/09/24 08:03:31;;;;;;;7.63;4.90;;;13.30;99.90;;;;;;4356261;28;659775;-85
2022/09/24 08:06:18;;;;;;;7.53;4.83;;;13.30;99.90;;;;;;4371819;28;656957;-85
2022/09/24 08:09:05;;;;;;;7.10;4.73;;;13.30;99.90;;;;;;4347365;28;656693;-84
2022/09/24 08:11:52;;;;;;;10.83;5.67;;;13.30;99.90;;;;;;4350843;28;657166;-85
2022/09/24 08:14:42;;;;;;;10.93;6.27;;;13.30;99.90;;;;;;4359290;28;657865;-84
2022/09/24 08:17:29;;;;;;;13.35;7.90;;;12.80;99.90;;;;;;4365707;28;657488;-83
2022/09/24 08:20:16;;;;;;;12.90;6.83;;;12.80;99.90;;;;;;4347310;28;657807;-84
2022/09/24 08:23:04;;;;;;;13.10;8.27;;;12.90;99.90;;;;;;4358735;28;657734;-84
2022/09/24 08:25:54;;;;;;;14.03;7.13;;;13.10;99.90;;;;;;4345929;28;658860;-83
2022/09/24 08:28:41;;;;;;;9.10;6.00;;;13.10;99.90;;;;;;4356230;28;657591;-84
2022/09/24 08:31:32;;;;;;;8.30;5.03;;;13.30;99.90;;;;;;4378691;28;658331;-84
2022/09/24 08:34:20;;;;;;;9.73;5.23;;;13.20;99.90;;;;;;4374894;28;657299;-83
2022/09/24 08:37:07;;;;;;;7.57;5.35;;;13.40;99.90;;;;;;4380356;28;656867;-84
2022/09/24 08:39:54;;;;;;;9.87;5.70;;;13.60;99.90;;;;;;4378997;28;656861;-83
2022/09/24 08:42:44;;;;;;;8.97;5.47;;;13.80;99.90;;;;;;4356918;28;656949;-84
2022/09/24 08:48:38;;;;;;;9.13;5.90;;;14.20;99.90;;;;;;4358121;28;658195;-83
2022/09/24 08:51:26;;;;;;;9.67;5.50;;;14.20;99.90;;;;;;4356231;28;656524;-84
2022/09/24 08:54:13;;;;;;;8.87;5.33;;;14.40;99.90;;;;;;4375224;28;657235;-84
2022/09/24 08:57:00;;;;;;;8.47;4.97;;;14.50;99.90;;;;;;4350279;28;656135;-83
2022/09/24 08:59:50;;;;;;;7.90;4.80;;;14.70;99.90;;;;;;4373417;28;657210;-84
2022/09/24 09:02:40;;;;;;;7.30;4.33;;;14.90;99.90;;;;;;4354787;28;657157;-83
2022/09/24 09:05:39;;;;;;;6.57;4.30;;;15.00;99.90;;;;;;4353270;28;656892;-83
2022/09/24 09:08:31;;;;;;;6.60;3.93;;;15.00;99.90;;;;;;4357394;28;656642;-84
2022/09/24 09:11:21;;;;;;;6.77;4.50;;;15.20;99.90;;;;;;4360812;28;657187;-83
2022/09/24 09:14:11;;;;;;;9.07;4.60;;;15.30;99.90;;;;;;4356074;28;656855;-83
2022/09/24 09:16:59;;;;;;;7.13;4.20;;;15.50;99.90;;;;;;4343303;28;657501;-84
2022/09/24 09:19:46;;;;;;;8.43;4.50;;;15.60;99.90;;;;;;4344812;28;656749;-83
2022/09/24 09:22:38;;;;;;;7.57;3.93;;;15.60;99.90;;;;;;4366596;28;657023;-83
2022/09/24 09:25:27;;;;;;;8.03;4.47;;;15.40;99.90;;;;;;4350198;28;656994;-83
2022/09/24 09:28:16;;;;;;;6.93;5.50;;;14.90;99.90;;;;;;4383087;28;656545;-83
2022/09/24 09:31:07;;;;;;;9.17;5.13;;;15.00;99.90;;;;;;4353388;28;656522;-83
2022/09/24 09:34:01;;;;;;;5.90;4.53;;;15.00;99.90;;;;;;4358173;28;656399;-83
2022/09/24 09:36:55;;;;;;;10.27;4.60;;;15.00;99.90;;;;;;4355704;28;657540;-84
2022/09/24 09:39:48;;;;;;;11.83;4.40;;;15.30;99.90;;;;;;4357334;28;657820;-83
2022/09/24 09:42:35;;;;;;;6.80;4.60;;;15.80;99.90;;;;;;4344986;28;657467;-83
2022/09/24 09:45:25;;;;;;;9.97;4.77;;;15.90;99.90;;;;;;4370987;28;657340;-83
2022/09/24 09:48:15;;;;;;;10.03;5.37;;;16.10;99.90;;;;;;4354198;28;657111;-83
2022/09/24 09:51:04;;;;;;;8.23;4.50;;;16.50;99.90;;;;;;4346888;28;658448;-83
2022/09/24 09:53:55;;;;;;;7.00;4.50;;;16.20;99.90;;;;;;4350828;28;656597;-83
2022/09/24 09:56:44;;;;;;;7.97;4.70;;;16.20;99.90;;;;;;4350070;28;657204;-83
2022/09/24 09:59:33;;;;;;;6.17;4.40;;;15.90;99.90;;;;;;4347948;28;656835;-83
2022/09/24 10:02:23;;;;;;;7.83;5.00;;;16.00;99.90;;;;;;4356131;28;656971;-83
2022/09/24 10:05:18;;;;;;;10.67;5.37;;;15.80;99.90;;;;;;4360425;28;656375;-83
2022/09/24 10:08:08;;;;;;;11.13;5.20;;;15.90;99.90;;;;;;4359346;28;657400;-83
2022/09/24 10:10:56;;;;;;;8.47;5.63;;;15.90;99.90;;;;;;4344544;28;657701;-83
2022/09/24 10:13:45;;;;;;;9.00;5.57;;;16.00;99.90;;;;;;4383064;28;656869;-84
2022/09/24 10:16:36;;;;;;;9.23;5.57;;;16.00;99.90;;;;;;4346698;28;657022;-83
2022/09/24 10:19:24;;;;;;;8.63;5.30;;;15.90;99.90;;;;;;4351509;28;657058;-82
2022/09/24 10:22:14;;;;;;;8.05;5.30;;;16.10;99.90;;;;;;4354553;28;656527;-82
2022/09/24 10:25:02;;;;;;;8.90;5.13;;;16.10;99.90;;;;;;4359982;28;656322;-82
2022/09/24 10:27:49;;;;;;;8.53;5.43;;;16.10;99.90;;;;;;4382188;28;656349;-82
2022/09/24 10:30:36;;;;;;;9.53;5.80;;;15.80;99.90;;;;;;4350107;28;656625;-82
2022/09/24 10:33:23;;;;;;;8.37;5.70;;;16.10;99.90;;;;;;4373305;28;656623;-82
2022/09/24 10:36:14;;;;;;;8.53;5.47;;;16.20;99.90;;;;;;4351790;28;656571;-84
2022/09/24 10:39:03;;;;;;;9.10;5.33;;;15.90;99.90;;;;;;4348894;28;656844;-82
2022/09/24 10:41:51;;;;;;;7.63;4.77;;;16.10;99.90;;;;;;4359387;28;656818;-83
2022/09/24 10:44:38;;;;;;;8.13;5.00;;;16.10;99.90;;;;;;4371749;28;656909;-82
2022/09/24 10:47:27;;;;;;;11.17;5.40;;;16.20;99.90;;;;;;4359699;28;656700;-82
2022/09/24 10:50:26;;;;;;;6.03;4.10;;;16.20;99.90;;;;;;4380621;28;657813;-83
2022/09/24 10:53:14;;;;;;;6.23;4.50;;;16.50;99.90;;;;;;4347014;28;656485;-83
2022/09/24 10:56:04;;;;;;;7.33;4.50;;;16.40;99.90;;;;;;4359536;28;658462;-83
2022/09/24 10:59:16;;;;;;;8.20;4.50;;;16.30;99.90;;;;;;4359507;28;656606;-83
2022/09/24 11:02:18;;;;;;;8.83;4.00;;;16.10;99.90;;;;;;4344538;28;656720;-83
2022/09/24 11:05:09;;;;;;;5.73;3.90;;;16.40;99.90;;;;;;4359839;28;656462;-84
2022/09/24 11:08:01;;;;;;;6.43;4.23;;;16.20;99.90;;;;;;4345328;28;657182;-82
2022/09/24 11:11:08;;;;;;;7.70;4.23;;;16.20;99.90;;;;;;4356280;28;656809;-83
2022/09/24 11:14:00;;;;;;;7.85;4.53;;;16.00;99.90;;;;;;4359773;28;656566;-83
2022/09/24 11:16:58;;;;;;;8.27;4.57;;;15.70;99.90;;;;;;4350895;28;657310;-84
2022/09/24 11:19:55;;;;;;;7.13;4.60;;;15.80;99.90;;;;;;4343899;28;657085;-83
2022/09/24 11:23:03;;;;;;;6.13;4.27;;;16.10;99.90;;;;;;4347678;28;656931;-83
2022/09/24 11:25:53;;;;;;;7.90;5.00;;;16.30;99.90;;;;;;4348504;28;656620;-84
2022/09/24 11:28:55;;;;;;;9.77;5.50;;;16.50;99.90;;;;;;4360057;28;656496;-83
2022/09/24 11:31:46;;;;;;;7.17;3.80;;;16.90;99.90;;;;;;4324037;28;657930;-84
2022/09/24 11:34:46;;;;;;;5.97;4.40;;;17.10;99.90;;;;;;4350058;28;656981;-84
2022/09/24 11:37:41;;;;;;;8.07;3.53;;;16.90;99.90;;;;;;4356013;28;657134;-84
2022/09/24 11:40:51;;;;;;;9.73;4.30;;;16.80;99.90;;;;;;4352794;28;656349;-84
2022/09/24 11:44:01;;;;;;;8.27;4.67;;;17.00;99.90;;;;;;4358394;28;657088;-84
2022/09/24 11:46:56;;;;;;;8.13;3.50;;;17.10;99.90;;;;;;4351515;28;657260;-85
2022/09/24 11:49:53;;;;;;;6.73;4.00;;;16.90;98.80;;;;;;4357332;28;656691;-85
2022/09/24 11:52:42;;;;;;;4.70;3.50;;;16.80;99.90;;;;;;4346173;28;656638;-85
2022/09/24 11:55:33;;;;;;;6.20;4.20;;;16.90;99.90;;;;;;4373941;28;656525;-85
2022/09/24 11:58:25;;;;;;;6.20;3.80;;;17.20;99.90;;;;;;4328568;28;656579;-85
2022/09/24 12:01:14;;;;;;;7.97;3.60;;;17.30;99.90;;;;;;4355769;28;657926;-84
2022/09/24 12:04:03;;;;;;;4.57;3.33;;;17.60;99.90;;;;;;4348888;28;656272;-84
2022/09/24 12:06:53;;;;;;;8.00;3.70;;;18.20;98.90;;;;;;4362038;28;656628;-84
2022/09/24 12:09:42;;;;;;;10.47;5.63;;;18.60;97.90;;;;;;4365668;28;656595;-85
2022/09/24 12:12:31;;;;;;;6.90;3.60;;;19.30;96.10;;;;;;4370303;28;657894;-85
2022/09/24 12:15:21;;;;;;;4.80;3.87;;;19.50;94.20;;;;;;4348611;28;656824;-84
2022/09/24 12:18:11;;;;;;;5.27;3.73;;;19.80;92.60;;;;;;4349132;28;657085;-85
2022/09/24 12:21:00;;;;;;;5.30;3.50;;;19.90;86.50;;;;;;4356043;28;657434;-84
2022/09/24 12:23:50;;;;;;;5.90;2.70;;;19.70;87.20;;;;;;4355457;28;657562;-84
2022/09/24 12:26:37;;;;;;;3.10;2.17;;;19.50;83.80;;;;;;4352371;28;657500;-83
2022/09/24 12:32:55;;;;;;;5.67;2.47;;;18.90;77.40;;;;;;4348155;28;656906;-83
2022/09/24 12:35:54;;;;;;;4.33;2.90;;;19.00;80.20;;;;;;4337491;28;656716;-84
2022/09/24 12:38:42;;;;;;;4.33;2.80;;;19.10;80.80;;;;;;4331264;28;656869;-84
2022/09/24 12:41:30;;;;;;;3.73;2.20;;;19.10;78.80;;;;;;4377347;28;656857;-85
2022/09/24 12:44:18;;;;;;;3.23;2.43;;;19.30;78.10;;;;;;4357210;28;656884;-84
2022/09/24 12:47:06;;;;;;;4.53;2.90;;;19.40;78.50;;;;;;4353399;28;656817;-84
2022/09/24 12:49:55;;;;;;;3.83;2.70;;;19.80;77.40;;;;;;4377552;28;657468;-84
2022/09/24 12:52:42;;;;;;;6.10;3.87;;;19.60;75.80;;;;;;4352255;28;656522;-85
2022/09/24 12:55:32;;;;;;;5.20;3.43;;;19.40;76.60;;;;;;4380394;28;656154;-85
2022/09/24 12:58:27;;;;;;;4.95;2.50;;;19.30;77.70;;;;;;4352650;28;656947;-86
2022/09/24 13:01:26;;;;;;;4.10;2.60;;;18.60;77.60;;;;;;4355806;28;656270;-85
2022/09/24 13:04:26;;;;;;;4.73;2.27;;;18.10;81.40;;;;;;4361785;28;656690;-85
2022/09/24 13:07:34;;;;;;;5.00;2.30;;;18.00;81.30;;;;;;4338891;28;657332;-85
2022/09/24 13:10:23;;;;;;;4.87;2.97;;;18.40;80.30;;;;;;4349508;28;656757;-85
2022/09/24 13:13:26;;;;;;;3.43;2.27;;;18.20;80.00;;;;;;4359106;28;656477;-84
2022/09/24 13:16:17;;;;;;;3.67;2.33;;;18.40;80.70;;;;;;4358185;28;657471;-84
2022/09/24 13:19:05;;;;;;;3.90;2.77;;;18.80;81.70;;;;;;4376990;28;656545;-84
2022/09/24 13:21:53;;;;;;;7.63;4.37;;;20.10;78.20;;;;;;4360136;28;656864;-85
2022/09/24 13:24:47;;;;;;;10.87;3.40;;;21.10;74.90;;;;;;4354464;28;656407;-85
2022/09/24 13:27:36;;;;;;;4.77;2.70;;;21.10;69.40;;;;;;4352225;28;657146;-84
2022/09/24 13:30:32;;;;;;;4.83;2.90;;;20.90;72.60;;;;;;4359074;28;657122;-85
2022/09/24 13:33:22;;;;;;;7.33;4.10;;;20.90;70.00;;;;;;4355827;28;656475;-84
2022/09/24 13:36:12;;;;;;;5.90;3.10;;;20.40;71.30;;;;;;4338688;28;656321;-84
2022/09/24 13:39:03;;;;;;;6.37;3.63;;;20.50;74.10;;;;;;4357715;28;657296;-85
2022/09/24 13:41:56;;;;;;;4.33;2.77;;;21.30;73.00;;;;;;4354725;28;657393;-84
2022/09/24 13:44:44;;;;;;;7.10;4.07;;;21.70;71.20;;;;;;4362352;28;657012;-85
2022/09/24 13:47:35;;;;;;;7.67;3.30;;;21.40;70.10;;;;;;4357908;28;657032;-85
2022/09/24 13:50:24;;;;;;;6.23;3.40;;;22.20;67.90;;;;;;4355095;28;657186;-85
2022/09/24 13:53:14;;;;;;;4.70;3.20;;;21.70;66.40;;;;;;4357926;28;656514;-85
2022/09/24 13:56:03;;;;;;;5.90;3.50;;;21.90;65.50;;;;;;4355875;28;656641;-85
2022/09/24 13:58:53;;;;;;;7.97;3.70;;;22.10;64.40;;;;;;4363088;28;656743;-85
2022/09/24 14:01:41;;;;;;;7.73;3.10;;;22.70;65.40;;;;;;4369931;28;656672;-85
2022/09/24 14:04:29;;;;;;;4.60;3.20;;;23.00;64.60;;;;;;4371671;28;656964;-85
2022/09/24 14:07:17;;;;;;;4.73;3.43;;;23.60;61.00;;;;;;4360126;28;656557;-85
2022/09/24 14:10:06;;;;;;;6.47;3.23;;;24.20;58.50;;;;;;4383995;28;656177;-86
2022/09/24 14:13:00;;;;;;;4.47;3.17;;;23.20;59.70;;;;;;4356634;28;656778;-86
2022/09/24 14:15:53;;;;;;;6.07;3.37;;;22.80;63.60;;;;;;4350529;28;656183;-85
2022/09/24 14:18:40;;;;;;;7.13;3.70;;;22.50;59.90;;;;;;4331986;28;656859;-85
2022/09/24 14:21:30;;;;;;;5.90;4.17;;;22.10;62.40;;;;;;4380564;28;657407;-85
2022/09/24 14:24:19;;;;;;;12.67;5.03;;;23.90;65.40;;;;;;4345737;28;656641;-85
2022/09/24 14:27:07;;;;;;;5.93;3.40;;;24.60;58.70;;;;;;4355408;28;657955;-85
2022/09/24 14:29:55;;;;;;;3.20;2.70;;;24.90;57.90;;;;;;4379482;28;656481;-85
2022/09/24 14:32:44;;;;;;;5.93;3.20;;;25.50;56.00;;;;;;4353028;28;657324;-84
2022/09/24 14:35:32;;;;;;;5.90;3.50;;;26.30;52.60;;;;;;4354117;28;656534;-85
2022/09/24 14:38:20;;;;;;;7.13;3.20;;;27.10;51.80;;;;;;4367602;28;656334;-85
2022/09/24 14:41:14;;;;;;;15.00;8.03;;;27.60;49.90;;;;;;4349765;28;656857;-85
2022/09/24 14:44:02;;;;;;;6.20;3.07;;;27.50;49.50;;;;;;4350635;28;657525;-85